sensor_id;sensor_type;location;lat;lon;timestamp;temperature;humidity
78467;SHT31;67759;51.972;5.650;2024-03-23T00:54:15;14.7;52.4
78467;SHT31;67759;51.972;5.650;2024-03-23T00:56:43;14.7;52.4
78467;SHT31;67759;51.972;5.650;2024-03-23T00:59:14;14.6;52.7
78467;SHT31;67759;51.972;5.650;2024-03-23T01:01:42;14.6;52.6
78467;SHT31;67759;51.972;5.650;2024-03-23T01:04:11;14.6;52.9
78467;SHT31;67759;51.972;5.650;2024-03-23T01:06:39;14.5;53.0
78467;SHT31;67759;51.972;5.650;2024-03-23T01:09:08;14.5;53.0
78467;SHT31;67759;51.972;5.650;2024-03-23T01:11:37;14.4;53.2
78467;SHT31;67759;51.972;5.650;2024-03-23T01:14:06;14.4;53.6
78467;SHT31;67759;51.972;5.650;2024-03-23T01:16:35;14.4;53.6
78467;SHT31;67759;51.972;5.650;2024-03-23T01:19:03;14.3;53.8
78467;SHT31;67759;51.972;5.650;2024-03-23T01:21:32;14.3;54.0
78467;SHT31;67759;51.972;5.650;2024-03-23T01:24:01;14.2;54.3
78467;SHT31;67759;51.972;5.650;2024-03-23T01:26:30;14.2;54.6
78467;SHT31;67759;51.972;5.650;2024-03-23T01:28:58;14.2;54.7
78467;SHT31;67759;51.972;5.650;2024-03-23T01:31:27;14.2;54.7
78467;SHT31;67759;51.972;5.650;2024-03-23T01:33:55;14.3;54.6
78467;SHT31;67759;51.972;5.650;2024-03-23T01:36:25;14.3;54.5
78467;SHT31;67759;51.972;5.650;2024-03-23T01:38:53;14.3;54.5
78467;SHT31;67759;51.972;5.650;2024-03-23T01:41:24;14.3;54.6
78467;SHT31;67759;51.972;5.650;2024-03-23T01:43:55;14.4;54.7
78467;SHT31;67759;51.972;5.650;2024-03-23T01:46:24;14.5;54.4
78467;SHT31;67759;51.972;5.650;2024-03-23T01:48:53;14.5;54.0
78467;SHT31;67759;51.972;5.650;2024-03-23T01:51:23;14.5;53.9
78467;SHT31;67759;51.972;5.650;2024-03-23T01:53:53;14.6;53.8
78467;SHT31;67759;51.972;5.650;2024-03-23T01:56:22;14.6;53.7
78467;SHT31;67759;51.972;5.650;2024-03-23T01:58:51;14.6;53.5
78467;SHT31;67759;51.972;5.650;2024-03-23T02:01:21;14.7;53.3
78467;SHT31;67759;51.972;5.650;2024-03-23T02:03:50;14.7;53.2
78467;SHT31;67759;51.972;5.650;2024-03-23T02:06:19;14.7;53.2
78467;SHT31;67759;51.972;5.650;2024-03-23T02:08:48;14.8;53.0
78467;SHT31;67759;51.972;5.650;2024-03-23T02:11:17;14.8;53.0
78467;SHT31;67759;51.972;5.650;2024-03-23T02:13:45;14.8;53.1
78467;SHT31;67759;51.972;5.650;2024-03-23T02:16:16;14.8;52.8
78467;SHT31;67759;51.972;5.650;2024-03-23T02:18:45;14.7;52.7
78467;SHT31;67759;51.972;5.650;2024-03-23T02:21:15;14.7;53.2
78467;SHT31;67759;51.972;5.650;2024-03-23T02:23:44;14.6;53.2
78467;SHT31;67759;51.972;5.650;2024-03-23T02:26:15;14.6;53.0
78467;SHT31;67759;51.972;5.650;2024-03-23T02:28:43;14.5;52.9
78467;SHT31;67759;51.972;5.650;2024-03-23T02:31:15;14.4;53.1
78467;SHT31;67759;51.972;5.650;2024-03-23T02:33:44;14.3;53.2
78467;SHT31;67759;51.972;5.650;2024-03-23T02:36:13;14.2;53.5
78467;SHT31;67759;51.972;5.650;2024-03-23T02:38:42;14.1;53.7
78467;SHT31;67759;51.972;5.650;2024-03-23T02:41:13;14.0;53.8
78467;SHT31;67759;51.972;5.650;2024-03-23T02:43:48;13.9;54.1
78467;SHT31;67759;51.972;5.650;2024-03-23T02:46:17;13.8;54.4
78467;SHT31;67759;51.972;5.650;2024-03-23T02:48:50;13.7;54.7
78467;SHT31;67759;51.972;5.650;2024-03-23T02:51:19;13.6;54.8
78467;SHT31;67759;51.972;5.650;2024-03-23T02:53:47;13.5;55.0
78467;SHT31;67759;51.972;5.650;2024-03-23T02:56:16;13.4;55.2
78467;SHT31;67759;51.972;5.650;2024-03-23T02:58:44;13.3;55.6
78467;SHT31;67759;51.972;5.650;2024-03-23T03:01:13;13.2;55.7
78467;SHT31;67759;51.972;5.650;2024-03-23T03:03:41;13.1;56.0
78467;SHT31;67759;51.972;5.650;2024-03-23T03:06:10;13.1;56.0
78467;SHT31;67759;51.972;5.650;2024-03-23T03:08:39;13.0;56.1
78467;SHT31;67759;51.972;5.650;2024-03-23T03:11:07;13.0;56.2
78467;SHT31;67759;51.972;5.650;2024-03-23T03:13:36;12.9;56.2
78467;SHT31;67759;51.972;5.650;2024-03-23T03:16:08;12.9;56.2
78467;SHT31;67759;51.972;5.650;2024-03-23T03:18:37;12.9;56.4
78467;SHT31;67759;51.972;5.650;2024-03-23T03:21:07;12.9;56.4
78467;SHT31;67759;51.972;5.650;2024-03-23T03:23:37;12.9;56.7
78467;SHT31;67759;51.972;5.650;2024-03-23T03:26:06;12.9;56.6
78467;SHT31;67759;51.972;5.650;2024-03-23T03:28:35;13.0;56.2
78467;SHT31;67759;51.972;5.650;2024-03-23T03:31:05;13.0;55.8
78467;SHT31;67759;51.972;5.650;2024-03-23T03:33:34;13.0;55.7
78467;SHT31;67759;51.972;5.650;2024-03-23T03:36:03;13.0;55.4
78467;SHT31;67759;51.972;5.650;2024-03-23T03:38:32;13.0;55.3
78467;SHT31;67759;51.972;5.650;2024-03-23T03:41:02;13.0;55.2
78467;SHT31;67759;51.972;5.650;2024-03-23T03:43:34;13.0;54.8
78467;SHT31;67759;51.972;5.650;2024-03-23T03:46:03;13.0;54.6
78467;SHT31;67759;51.972;5.650;2024-03-23T03:48:34;12.9;54.3
78467;SHT31;67759;51.972;5.650;2024-03-23T03:51:03;12.9;54.2
78467;SHT31;67759;51.972;5.650;2024-03-23T03:53:32;12.9;54.0
78467;SHT31;67759;51.972;5.650;2024-03-23T03:56:02;12.9;53.8
78467;SHT31;67759;51.972;5.650;2024-03-23T03:58:33;12.9;53.8
78467;SHT31;67759;51.972;5.650;2024-03-23T04:01:01;12.8;53.7
78467;SHT31;67759;51.972;5.650;2024-03-23T04:03:32;12.8;53.5
78467;SHT31;67759;51.972;5.650;2024-03-23T04:06:00;12.8;53.5
78467;SHT31;67759;51.972;5.650;2024-03-23T04:08:29;12.7;53.5
78467;SHT31;67759;51.972;5.650;2024-03-23T04:10:58;12.7;53.4
78467;SHT31;67759;51.972;5.650;2024-03-23T04:13:26;12.7;53.3
78467;SHT31;67759;51.972;5.650;2024-03-23T04:15:56;12.6;53.2
78467;SHT31;67759;51.972;5.650;2024-03-23T04:18:25;12.6;53.1
78467;SHT31;67759;51.972;5.650;2024-03-23T04:20:53;12.6;53.0
78467;SHT31;67759;51.972;5.650;2024-03-23T04:23:22;12.5;53.0
78467;SHT31;67759;51.972;5.650;2024-03-23T04:25:51;12.5;53.0
78467;SHT31;67759;51.972;5.650;2024-03-23T04:28:20;12.4;53.1
78467;SHT31;67759;51.972;5.650;2024-03-23T04:30:49;12.4;53.0
78467;SHT31;67759;51.972;5.650;2024-03-23T04:33:18;12.4;53.2
78467;SHT31;67759;51.972;5.650;2024-03-23T04:35:48;12.3;53.0
78467;SHT31;67759;51.972;5.650;2024-03-23T04:38:18;12.3;53.1
78467;SHT31;67759;51.972;5.650;2024-03-23T04:40:56;12.3;53.0
78467;SHT31;67759;51.972;5.650;2024-03-23T04:43:26;12.3;53.0
78467;SHT31;67759;51.972;5.650;2024-03-23T04:45:54;12.3;52.9
78467;SHT31;67759;51.972;5.650;2024-03-23T04:48:23;12.3;52.8
78467;SHT31;67759;51.972;5.650;2024-03-23T04:50:54;12.3;52.8
78467;SHT31;67759;51.972;5.650;2024-03-23T04:53:24;12.2;52.7
78467;SHT31;67759;51.972;5.650;2024-03-23T04:55:57;12.2;52.7
78467;SHT31;67759;51.972;5.650;2024-03-23T04:58:26;12.2;52.7
78467;SHT31;67759;51.972;5.650;2024-03-23T05:00:56;12.2;52.6
78467;SHT31;67759;51.972;5.650;2024-03-23T05:03:24;12.2;52.6
78467;SHT31;67759;51.972;5.650;2024-03-23T05:05:53;12.2;52.6
78467;SHT31;67759;51.972;5.650;2024-03-23T05:08:22;12.3;52.7
78467;SHT31;67759;51.972;5.650;2024-03-23T05:10:50;12.3;52.3
78467;SHT31;67759;51.972;5.650;2024-03-23T05:13:19;12.4;52.0
78467;SHT31;67759;51.972;5.650;2024-03-23T05:15:52;12.4;51.8
78467;SHT31;67759;51.972;5.650;2024-03-23T05:18:22;12.4;51.8
78467;SHT31;67759;51.972;5.650;2024-03-23T05:20:57;12.4;51.7
78467;SHT31;67759;51.972;5.650;2024-03-23T05:23:28;12.4;51.7
78467;SHT31;67759;51.972;5.650;2024-03-23T05:25:59;12.3;51.8
78467;SHT31;67759;51.972;5.650;2024-03-23T05:28:29;12.3;51.8
78467;SHT31;67759;51.972;5.650;2024-03-23T05:31:02;12.3;51.8
78467;SHT31;67759;51.972;5.650;2024-03-23T05:33:34;12.2;51.9
78467;SHT31;67759;51.972;5.650;2024-03-23T05:36:05;12.2;51.8
78467;SHT31;67759;51.972;5.650;2024-03-23T05:38:37;12.2;52.0
78467;SHT31;67759;51.972;5.650;2024-03-23T05:41:06;12.2;52.0
78467;SHT31;67759;51.972;5.650;2024-03-23T05:43:37;12.1;51.9
78467;SHT31;67759;51.972;5.650;2024-03-23T05:46:06;12.1;51.9
78467;SHT31;67759;51.972;5.650;2024-03-23T05:48:37;12.1;52.0
78467;SHT31;67759;51.972;5.650;2024-03-23T05:51:06;12.1;52.0
78467;SHT31;67759;51.972;5.650;2024-03-23T05:53:35;12.1;52.0
78467;SHT31;67759;51.972;5.650;2024-03-23T05:56:04;12.1;52.0
78467;SHT31;67759;51.972;5.650;2024-03-23T05:58:33;12.1;52.0
78467;SHT31;67759;51.972;5.650;2024-03-23T06:01:04;12.1;52.1
78467;SHT31;67759;51.972;5.650;2024-03-23T06:03:34;12.1;52.1
78467;SHT31;67759;51.972;5.650;2024-03-23T06:06:03;12.2;52.3
78467;SHT31;67759;51.972;5.650;2024-03-23T06:08:36;12.2;52.3
78467;SHT31;67759;51.972;5.650;2024-03-23T06:11:06;12.3;52.3
78467;SHT31;67759;51.972;5.650;2024-03-23T06:13:34;12.3;52.2
78467;SHT31;67759;51.972;5.650;2024-03-23T06:16:03;12.3;52.5
78467;SHT31;67759;51.972;5.650;2024-03-23T06:18:35;12.4;52.4
78467;SHT31;67759;51.972;5.650;2024-03-23T06:21:04;12.4;52.6
78467;SHT31;67759;51.972;5.650;2024-03-23T06:23:33;12.4;52.4
78467;SHT31;67759;51.972;5.650;2024-03-23T06:26:01;12.3;52.2
78467;SHT31;67759;51.972;5.650;2024-03-23T06:28:30;12.3;52.5
78467;SHT31;67759;51.972;5.650;2024-03-23T06:30:59;12.3;52.8
78467;SHT31;67759;51.972;5.650;2024-03-23T06:33:28;12.4;52.5
78467;SHT31;67759;51.972;5.650;2024-03-23T06:35:59;12.4;52.4
78467;SHT31;67759;51.972;5.650;2024-03-23T06:38:29;12.4;52.2
78467;SHT31;67759;51.972;5.650;2024-03-23T06:40:57;12.4;51.7
78467;SHT31;67759;51.972;5.650;2024-03-23T06:43:28;12.4;51.8
78467;SHT31;67759;51.972;5.650;2024-03-23T06:45:57;12.4;52.3
78467;SHT31;67759;51.972;5.650;2024-03-23T06:48:25;12.5;52.5
78467;SHT31;67759;51.972;5.650;2024-03-23T06:50:58;12.5;52.7
78467;SHT31;67759;51.972;5.650;2024-03-23T06:53:28;12.6;51.5
78467;SHT31;67759;51.972;5.650;2024-03-23T06:55:57;12.7;51.2
78467;SHT31;67759;51.972;5.650;2024-03-23T06:58:27;12.7;50.9
78467;SHT31;67759;51.972;5.650;2024-03-23T07:00:56;12.7;50.5
78467;SHT31;67759;51.972;5.650;2024-03-23T07:03:26;12.7;50.7
78467;SHT31;67759;51.972;5.650;2024-03-23T07:05:59;12.7;51.2
78467;SHT31;67759;51.972;5.650;2024-03-23T07:08:28;12.6;51.5
78467;SHT31;67759;51.972;5.650;2024-03-23T07:10:57;12.7;51.8
78467;SHT31;67759;51.972;5.650;2024-03-23T07:13:25;12.7;52.0
78467;SHT31;67759;51.972;5.650;2024-03-23T07:15:54;12.7;52.2
78467;SHT31;67759;51.972;5.650;2024-03-23T07:18:23;12.7;52.2
78467;SHT31;67759;51.972;5.650;2024-03-23T07:20:56;12.8;52.3
78467;SHT31;67759;51.972;5.650;2024-03-23T07:23:25;12.8;52.2
78467;SHT31;67759;51.972;5.650;2024-03-23T07:26:00;12.9;52.0
78467;SHT31;67759;51.972;5.650;2024-03-23T07:28:29;12.9;52.3
78467;SHT31;67759;51.972;5.650;2024-03-23T07:31:06;13.0;52.0
78467;SHT31;67759;51.972;5.650;2024-03-23T07:33:36;13.1;51.6
78467;SHT31;67759;51.972;5.650;2024-03-23T07:36:07;13.1;52.0
78467;SHT31;67759;51.972;5.650;2024-03-23T07:38:39;13.2;51.6
78467;SHT31;67759;51.972;5.650;2024-03-23T07:41:11;13.4;51.2
78467;SHT31;67759;51.972;5.650;2024-03-23T07:43:40;13.5;51.0
78467;SHT31;67759;51.972;5.650;2024-03-23T07:46:09;13.6;50.6
78467;SHT31;67759;51.972;5.650;2024-03-23T07:48:38;13.6;50.0
78467;SHT31;67759;51.972;5.650;2024-03-23T07:51:10;13.7;49.9
78467;SHT31;67759;51.972;5.650;2024-03-23T07:53:38;13.7;49.4
78467;SHT31;67759;51.972;5.650;2024-03-23T07:56:10;13.7;48.8
78467;SHT31;67759;51.972;5.650;2024-03-23T07:58:39;13.7;49.3
78467;SHT31;67759;51.972;5.650;2024-03-23T08:01:09;13.6;49.6
78467;SHT31;67759;51.972;5.650;2024-03-23T08:03:39;13.6;49.6
78467;SHT31;67759;51.972;5.650;2024-03-23T08:06:12;13.6;49.8
78467;SHT31;67759;51.972;5.650;2024-03-23T08:08:42;13.6;49.0
78467;SHT31;67759;51.972;5.650;2024-03-23T08:11:11;13.6;49.1
78467;SHT31;67759;51.972;5.650;2024-03-23T08:13:41;13.6;50.1
78467;SHT31;67759;51.972;5.650;2024-03-23T08:16:10;13.6;50.0
78467;SHT31;67759;51.972;5.650;2024-03-23T08:18:40;13.7;49.3
78467;SHT31;67759;51.972;5.650;2024-03-23T08:21:08;13.8;48.6
78467;SHT31;67759;51.972;5.650;2024-03-23T08:23:38;13.9;48.6
78467;SHT31;67759;51.972;5.650;2024-03-23T08:26:12;13.9;48.7
78467;SHT31;67759;51.972;5.650;2024-03-23T08:28:41;14.0;48.0
78467;SHT31;67759;51.972;5.650;2024-03-23T08:31:11;14.1;48.0
78467;SHT31;67759;51.972;5.650;2024-03-23T08:33:41;14.2;46.2
78467;SHT31;67759;51.972;5.650;2024-03-23T08:36:14;14.4;46.0
78467;SHT31;67759;51.972;5.650;2024-03-23T08:38:43;14.5;45.4
78467;SHT31;67759;51.972;5.650;2024-03-23T08:41:12;14.6;45.4
78467;SHT31;67759;51.972;5.650;2024-03-23T08:43:43;14.6;44.3
78467;SHT31;67759;51.972;5.650;2024-03-23T08:46:12;14.7;45.2
78467;SHT31;67759;51.972;5.650;2024-03-23T08:48:42;14.8;44.7
78467;SHT31;67759;51.972;5.650;2024-03-23T08:51:13;14.8;45.9
78467;SHT31;67759;51.972;5.650;2024-03-23T08:53:45;14.7;46.3
78467;SHT31;67759;51.972;5.650;2024-03-23T08:56:13;14.5;46.1
78467;SHT31;67759;51.972;5.650;2024-03-23T08:58:42;14.4;46.7
78467;SHT31;67759;51.972;5.650;2024-03-23T09:01:12;14.3;48.7
78467;SHT31;67759;51.972;5.650;2024-03-23T09:03:42;14.2;46.2
78467;SHT31;67759;51.972;5.650;2024-03-23T09:06:12;13.9;48.0
78467;SHT31;67759;51.972;5.650;2024-03-23T09:08:42;13.5;49.4
78467;SHT31;67759;51.972;5.650;2024-03-23T09:11:12;13.3;50.0
78467;SHT31;67759;51.972;5.650;2024-03-23T09:13:41;13.2;49.7
78467;SHT31;67759;51.972;5.650;2024-03-23T09:16:10;13.1;49.9
78467;SHT31;67759;51.972;5.650;2024-03-23T09:18:39;13.1;48.9
78467;SHT31;67759;51.972;5.650;2024-03-23T09:21:13;13.2;50.5
78467;SHT31;67759;51.972;5.650;2024-03-23T09:23:44;13.4;50.2
78467;SHT31;67759;51.972;5.650;2024-03-23T09:26:15;13.8;50.5
78467;SHT31;67759;51.972;5.650;2024-03-23T09:28:43;14.1;47.7
78467;SHT31;67759;51.972;5.650;2024-03-23T09:31:12;14.4;45.5
78467;SHT31;67759;51.972;5.650;2024-03-23T09:33:42;14.5;46.8
78467;SHT31;67759;51.972;5.650;2024-03-23T09:36:11;14.6;46.2
78467;SHT31;67759;51.972;5.650;2024-03-23T09:38:40;14.7;46.1
78467;SHT31;67759;51.972;5.650;2024-03-23T09:41:11;14.7;45.3
78467;SHT31;67759;51.972;5.650;2024-03-23T09:43:40;14.8;45.9
78467;SHT31;67759;51.972;5.650;2024-03-23T09:46:10;14.8;44.2
78467;SHT31;67759;51.972;5.650;2024-03-23T09:48:38;14.8;44.7
78467;SHT31;67759;51.972;5.650;2024-03-23T09:51:07;14.9;45.2
78467;SHT31;67759;51.972;5.650;2024-03-23T09:53:37;14.9;44.4
78467;SHT31;67759;51.972;5.650;2024-03-23T09:56:07;14.9;41.7
78467;SHT31;67759;51.972;5.650;2024-03-23T09:58:36;15.0;41.9
78467;SHT31;67759;51.972;5.650;2024-03-23T10:01:05;15.0;42.2
78467;SHT31;67759;51.972;5.650;2024-03-23T10:03:45;15.1;43.0
78467;SHT31;67759;51.972;5.650;2024-03-23T10:06:14;15.2;42.9
78467;SHT31;67759;51.972;5.650;2024-03-23T10:08:47;15.4;43.3
78467;SHT31;67759;51.972;5.650;2024-03-23T10:11:18;15.7;40.7
78467;SHT31;67759;51.972;5.650;2024-03-23T10:13:48;16.0;41.5
78467;SHT31;67759;51.972;5.650;2024-03-23T10:16:24;16.1;41.4
78467;SHT31;67759;51.972;5.650;2024-03-23T10:18:53;16.0;42.6
78467;SHT31;67759;51.972;5.650;2024-03-23T10:21:21;15.4;44.5
78467;SHT31;67759;51.972;5.650;2024-03-23T10:23:50;14.9;46.2
78467;SHT31;67759;51.972;5.650;2024-03-23T10:26:20;14.7;44.3
78467;SHT31;67759;51.972;5.650;2024-03-23T10:28:53;14.6;44.2
78467;SHT31;67759;51.972;5.650;2024-03-23T10:31:23;14.6;44.6
78467;SHT31;67759;51.972;5.650;2024-03-23T10:33:52;14.5;44.3
78467;SHT31;67759;51.972;5.650;2024-03-23T10:36:23;14.5;44.1
78467;SHT31;67759;51.972;5.650;2024-03-23T10:38:56;14.5;44.1
78467;SHT31;67759;51.972;5.650;2024-03-23T10:41:29;14.6;44.2
78467;SHT31;67759;51.972;5.650;2024-03-23T10:44:02;14.7;44.6
78467;SHT31;67759;51.972;5.650;2024-03-23T10:46:33;14.8;42.4
78467;SHT31;67759;51.972;5.650;2024-03-23T10:49:03;15.0;41.5
78467;SHT31;67759;51.972;5.650;2024-03-23T10:51:32;15.1;41.7
78467;SHT31;67759;51.972;5.650;2024-03-23T10:54:04;15.1;41.8
78467;SHT31;67759;51.972;5.650;2024-03-23T10:56:42;15.1;41.4
78467;SHT31;67759;51.972;5.650;2024-03-23T10:59:11;15.2;41.3
78467;SHT31;67759;51.972;5.650;2024-03-23T11:01:55;15.2;39.6
78467;SHT31;67759;51.972;5.650;2024-03-23T11:04:37;15.2;40.6
78467;SHT31;67759;51.972;5.650;2024-03-23T11:07:29;15.2;41.8
78467;SHT31;67759;51.972;5.650;2024-03-23T11:09:59;15.2;42.0
78467;SHT31;67759;51.972;5.650;2024-03-23T11:12:30;15.2;41.7
78467;SHT31;67759;51.972;5.650;2024-03-23T11:15:03;15.3;41.5
78467;SHT31;67759;51.972;5.650;2024-03-23T11:17:32;15.4;41.2
78467;SHT31;67759;51.972;5.650;2024-03-23T11:20:05;15.4;40.1
78467;SHT31;67759;51.972;5.650;2024-03-23T11:22:48;15.4;40.3
78467;SHT31;67759;51.972;5.650;2024-03-23T11:25:21;15.4;42.3
78467;SHT31;67759;51.972;5.650;2024-03-23T11:27:53;15.3;43.8
78467;SHT31;67759;51.972;5.650;2024-03-23T11:30:25;15.2;44.8
78467;SHT31;67759;51.972;5.650;2024-03-23T11:32:57;15.2;45.1
78467;SHT31;67759;51.972;5.650;2024-03-23T11:35:32;15.2;44.0
78467;SHT31;67759;51.972;5.650;2024-03-23T11:38:06;15.3;43.4
78467;SHT31;67759;51.972;5.650;2024-03-23T11:40:39;15.4;42.7
78467;SHT31;67759;51.972;5.650;2024-03-23T11:43:09;15.6;40.5
78467;SHT31;67759;51.972;5.650;2024-03-23T11:45:43;15.8;39.5
78467;SHT31;67759;51.972;5.650;2024-03-23T11:48:14;15.8;40.3
78467;SHT31;67759;51.972;5.650;2024-03-23T11:50:56;15.8;38.6
78467;SHT31;67759;51.972;5.650;2024-03-23T11:53:26;15.8;38.6
78467;SHT31;67759;51.972;5.650;2024-03-23T11:56:00;15.8;40.7
78467;SHT31;67759;51.972;5.650;2024-03-23T11:58:29;15.8;41.2
78467;SHT31;67759;51.972;5.650;2024-03-23T12:01:35;15.7;42.0
78467;SHT31;67759;51.972;5.650;2024-03-23T12:06:09;15.7;40.6
78467;SHT31;67759;51.972;5.650;2024-03-23T12:08:38;15.7;41.0
78467;SHT31;67759;51.972;5.650;2024-03-23T12:11:09;15.7;40.7
78467;SHT31;67759;51.972;5.650;2024-03-23T12:13:43;15.7;40.7
78467;SHT31;67759;51.972;5.650;2024-03-23T12:16:14;15.8;39.8
78467;SHT31;67759;51.972;5.650;2024-03-23T12:18:52;15.8;38.5
78467;SHT31;67759;51.972;5.650;2024-03-23T12:21:23;15.8;37.7
78467;SHT31;67759;51.972;5.650;2024-03-23T12:24:00;15.8;38.4
78467;SHT31;67759;51.972;5.650;2024-03-23T12:26:35;15.9;38.6
78467;SHT31;67759;51.972;5.650;2024-03-23T12:29:06;16.0;38.5
78467;SHT31;67759;51.972;5.650;2024-03-23T12:31:44;16.2;38.0
78467;SHT31;67759;51.972;5.650;2024-03-23T12:34:12;16.5;38.5
78467;SHT31;67759;51.972;5.650;2024-03-23T12:36:41;16.7;40.1
78467;SHT31;67759;51.972;5.650;2024-03-23T12:39:28;16.9;40.4
78467;SHT31;67759;51.972;5.650;2024-03-23T12:42:08;16.6;40.4
78467;SHT31;67759;51.972;5.650;2024-03-23T12:45:01;16.3;37.9
78467;SHT31;67759;51.972;5.650;2024-03-23T12:47:30;16.2;38.6
78467;SHT31;67759;51.972;5.650;2024-03-23T12:49:59;16.2;38.3
78467;SHT31;67759;51.972;5.650;2024-03-23T12:52:48;16.2;38.4
78467;SHT31;67759;51.972;5.650;2024-03-23T12:55:20;16.3;38.5
78467;SHT31;67759;51.972;5.650;2024-03-23T12:58:06;16.5;38.9
78467;SHT31;67759;51.972;5.650;2024-03-23T13:00:36;16.7;37.8
78467;SHT31;67759;51.972;5.650;2024-03-23T13:03:17;16.8;37.7
78467;SHT31;67759;51.972;5.650;2024-03-23T13:05:55;17.0;37.9
78467;SHT31;67759;51.972;5.650;2024-03-23T13:09:16;17.1;36.2
78467;SHT31;67759;51.972;5.650;2024-03-23T13:14:32;17.1;36.1
78467;SHT31;67759;51.972;5.650;2024-03-23T13:17:02;17.0;37.4
78467;SHT31;67759;51.972;5.650;2024-03-23T13:19:32;16.9;37.3
78467;SHT31;67759;51.972;5.650;2024-03-23T13:24:49;16.7;38.3
78467;SHT31;67759;51.972;5.650;2024-03-23T13:27:19;16.6;38.5
78467;SHT31;67759;51.972;5.650;2024-03-23T13:29:51;16.6;38.5
78467;SHT31;67759;51.972;5.650;2024-03-23T13:32:31;16.5;39.3
78467;SHT31;67759;51.972;5.650;2024-03-23T13:35:00;16.5;41.0
78467;SHT31;67759;51.972;5.650;2024-03-23T13:37:30;16.4;40.1
78467;SHT31;67759;51.972;5.650;2024-03-23T13:39:58;16.3;38.7
78467;SHT31;67759;51.972;5.650;2024-03-23T13:42:39;16.2;37.7
78467;SHT31;67759;51.972;5.650;2024-03-23T13:45:09;16.1;37.4
78467;SHT31;67759;51.972;5.650;2024-03-23T13:47:50;16.0;38.8
78467;SHT31;67759;51.972;5.650;2024-03-23T13:50:28;15.9;38.2
78467;SHT31;67759;51.972;5.650;2024-03-23T13:53:17;15.9;38.8
78467;SHT31;67759;51.972;5.650;2024-03-23T13:55:49;15.8;41.5
78467;SHT31;67759;51.972;5.650;2024-03-23T13:58:18;15.6;44.7
78467;SHT31;67759;51.972;5.650;2024-03-23T14:00:49;15.0;45.7
78467;SHT31;67759;51.972;5.650;2024-03-23T14:03:20;14.5;47.4
78467;SHT31;67759;51.972;5.650;2024-03-23T14:05:49;14.2;47.7
78467;SHT31;67759;51.972;5.650;2024-03-23T14:08:31;14.0;46.7
78467;SHT31;67759;51.972;5.650;2024-03-23T14:11:08;14.0;46.8
78467;SHT31;67759;51.972;5.650;2024-03-23T14:13:43;13.9;47.2
78467;SHT31;67759;51.972;5.650;2024-03-23T14:16:12;14.0;47.1
78467;SHT31;67759;51.972;5.650;2024-03-23T14:18:40;14.1;46.2
78467;SHT31;67759;51.972;5.650;2024-03-23T14:21:09;14.3;46.2
78467;SHT31;67759;51.972;5.650;2024-03-23T14:23:53;14.3;46.1
78467;SHT31;67759;51.972;5.650;2024-03-23T14:26:22;14.1;46.5
78467;SHT31;67759;51.972;5.650;2024-03-23T14:28:54;13.9;46.1
78467;SHT31;67759;51.972;5.650;2024-03-23T14:31:23;13.7;47.7
78467;SHT31;67759;51.972;5.650;2024-03-23T14:33:52;13.5;47.8
78467;SHT31;67759;51.972;5.650;2024-03-23T14:36:52;13.3;48.6
78467;SHT31;67759;51.972;5.650;2024-03-23T14:39:42;13.2;49.6
78467;SHT31;67759;51.972;5.650;2024-03-23T14:42:12;13.2;49.9
78467;SHT31;67759;51.972;5.650;2024-03-23T14:44:48;13.2;49.3
78467;SHT31;67759;51.972;5.650;2024-03-23T14:47:18;13.2;48.5
78467;SHT31;67759;51.972;5.650;2024-03-23T14:49:47;13.2;48.9
78467;SHT31;67759;51.972;5.650;2024-03-23T14:52:17;13.3;47.7
78467;SHT31;67759;51.972;5.650;2024-03-23T14:54:50;13.4;48.7
78467;SHT31;67759;51.972;5.650;2024-03-23T14:57:19;13.5;48.5
78467;SHT31;67759;51.972;5.650;2024-03-23T15:00:05;13.6;48.0
78467;SHT31;67759;51.972;5.650;2024-03-23T15:02:39;13.7;48.8
78467;SHT31;67759;51.972;5.650;2024-03-23T15:05:20;13.8;49.4
78467;SHT31;67759;51.972;5.650;2024-03-23T15:07:50;14.1;48.8
78467;SHT31;67759;51.972;5.650;2024-03-23T15:10:28;14.4;47.3
78467;SHT31;67759;51.972;5.650;2024-03-23T15:12:57;14.6;45.3
78467;SHT31;67759;51.972;5.650;2024-03-23T15:18:04;15.1;43.4
78467;SHT31;67759;51.972;5.650;2024-03-23T15:20:33;15.3;42.8
78467;SHT31;67759;51.972;5.650;2024-03-23T15:25:45;15.7;42.0
78467;SHT31;67759;51.972;5.650;2024-03-23T15:28:14;15.9;40.0
78467;SHT31;67759;51.972;5.650;2024-03-23T15:30:43;16.0;40.8
78467;SHT31;67759;51.972;5.650;2024-03-23T15:33:29;16.1;39.1
78467;SHT31;67759;51.972;5.650;2024-03-23T15:38:44;16.3;38.2
78467;SHT31;67759;51.972;5.650;2024-03-23T15:41:15;16.3;38.1
78467;SHT31;67759;51.972;5.650;2024-03-23T15:43:44;16.4;37.9
78467;SHT31;67759;51.972;5.650;2024-03-23T15:46:19;16.5;37.7
78467;SHT31;67759;51.972;5.650;2024-03-23T15:48:47;16.5;38.0
78467;SHT31;67759;51.972;5.650;2024-03-23T15:51:16;16.6;37.5
78467;SHT31;67759;51.972;5.650;2024-03-23T15:53:46;16.6;37.7
78467;SHT31;67759;51.972;5.650;2024-03-23T15:56:14;16.7;37.6
78467;SHT31;67759;51.972;5.650;2024-03-23T15:58:53;16.7;38.9
78467;SHT31;67759;51.972;5.650;2024-03-23T16:01:30;16.9;37.7
78467;SHT31;67759;51.972;5.650;2024-03-23T16:04:00;17.0;37.7
78467;SHT31;67759;51.972;5.650;2024-03-23T16:06:43;17.1;37.5
78467;SHT31;67759;51.972;5.650;2024-03-23T16:09:19;17.2;36.6
78467;SHT31;67759;51.972;5.650;2024-03-23T16:12:00;17.3;36.9
78467;SHT31;67759;51.972;5.650;2024-03-23T16:14:31;17.4;36.7
78467;SHT31;67759;51.972;5.650;2024-03-23T16:17:07;17.4;37.3
78467;SHT31;67759;51.972;5.650;2024-03-23T16:19:45;17.5;37.3
78467;SHT31;67759;51.972;5.650;2024-03-23T16:22:13;17.5;37.4
78467;SHT31;67759;51.972;5.650;2024-03-23T16:24:44;17.6;37.9
78467;SHT31;67759;51.972;5.650;2024-03-23T16:29:59;17.7;36.8
78467;SHT31;67759;51.972;5.650;2024-03-23T16:32:40;17.8;37.2
78467;SHT31;67759;51.972;5.650;2024-03-23T16:35:11;17.8;36.8
78467;SHT31;67759;51.972;5.650;2024-03-23T16:37:49;17.9;36.9
78467;SHT31;67759;51.972;5.650;2024-03-23T16:40:24;18.0;36.8
78467;SHT31;67759;51.972;5.650;2024-03-23T16:43:06;18.0;36.6
78467;SHT31;67759;51.972;5.650;2024-03-23T16:45:41;18.0;36.5
78467;SHT31;67759;51.972;5.650;2024-03-23T16:48:10;17.9;35.8
78467;SHT31;67759;51.972;5.650;2024-03-23T16:51:00;17.9;35.5
78467;SHT31;67759;51.972;5.650;2024-03-23T16:53:39;17.8;35.4
78467;SHT31;67759;51.972;5.650;2024-03-23T16:56:31;17.8;36.1
78467;SHT31;67759;51.972;5.650;2024-03-23T16:59:17;17.8;35.9
78467;SHT31;67759;51.972;5.650;2024-03-23T17:01:48;17.8;35.8
78467;SHT31;67759;51.972;5.650;2024-03-23T17:04:23;17.8;35.7
78467;SHT31;67759;51.972;5.650;2024-03-23T17:07:04;17.8;35.8
78467;SHT31;67759;51.972;5.650;2024-03-23T17:10:00;17.8;35.6
78467;SHT31;67759;51.972;5.650;2024-03-23T17:12:30;17.7;35.3
78467;SHT31;67759;51.972;5.650;2024-03-23T17:15:23;17.6;36.0
78467;SHT31;67759;51.972;5.650;2024-03-23T17:17:52;17.5;36.3
78467;SHT31;67759;51.972;5.650;2024-03-23T17:20:21;17.3;36.6
78467;SHT31;67759;51.972;5.650;2024-03-23T17:22:54;17.2;36.4
78467;SHT31;67759;51.972;5.650;2024-03-23T17:25:23;17.0;37.2
78467;SHT31;67759;51.972;5.650;2024-03-23T17:27:52;16.8;38.1
78467;SHT31;67759;51.972;5.650;2024-03-23T17:30:21;16.6;38.8
78467;SHT31;67759;51.972;5.650;2024-03-23T17:35:40;16.5;38.9
78467;SHT31;67759;51.972;5.650;2024-03-23T17:38:27;16.4;38.9
78467;SHT31;67759;51.972;5.650;2024-03-23T17:40:58;16.4;38.5
78467;SHT31;67759;51.972;5.650;2024-03-23T17:43:27;16.3;38.2
78467;SHT31;67759;51.972;5.650;2024-03-23T17:46:48;16.3;38.8